sensor_id;sensor_type;location;lat;lon;timestamp;pressure;altitude;pressure_sealevel;temperature;humidity
77077;BME280;66003;52.286;104.306;2023-02-01T00:01:56;97822.75;;;-18.86;49.77
77077;BME280;66003;52.286;104.306;2023-02-01T00:04:22;97823.56;;;-18.86;50.29
77077;BME280;66003;52.286;104.306;2023-02-01T00:06:48;97789.34;;;-18.79;49.63
77077;BME280;66003;52.286;104.306;2023-02-01T00:09:14;97832.00;;;-18.24;50.08
77077;BME280;66003;52.286;104.306;2023-02-01T00:11:40;97773.94;;;-18.57;49.67
77077;BME280;66003;52.286;104.306;2023-02-01T00:14:06;97820.22;;;-18.27;49.67
77077;BME280;66003;52.286;104.306;2023-02-01T00:16:34;97809.19;;;-18.27;49.87
77077;BME280;66003;52.286;104.306;2023-02-01T00:19:06;97834.31;;;-18.18;50.15
77077;BME280;66003;52.286;104.306;2023-02-01T00:21:32;97826.66;;;-18.18;49.82
77077;BME280;66003;52.286;104.306;2023-02-01T00:23:59;97767.22;;;-18.58;50.20
77077;BME280;66003;52.286;104.306;2023-02-01T00:26:33;97813.19;;;-18.41;49.84
77077;BME280;66003;52.286;104.306;2023-02-01T00:29:01;97765.41;;;-18.56;50.31
77077;BME280;66003;52.286;104.306;2023-02-01T00:31:28;97798.91;;;-18.45;49.68
77077;BME280;66003;52.286;104.306;2023-02-01T00:33:54;97793.91;;;-18.66;50.09
77077;BME280;66003;52.286;104.306;2023-02-01T00:36:20;97734.44;;;-19.06;50.14
77077;BME280;66003;52.286;104.306;2023-02-01T00:38:47;97836.41;;;-18.08;50.21
77077;BME280;66003;52.286;104.306;2023-02-01T00:41:18;97786.66;;;-18.37;49.92
77077;BME280;66003;52.286;104.306;2023-02-01T00:43:44;97775.69;;;-18.57;49.60
77077;BME280;66003;52.286;104.306;2023-02-01T00:46:11;97797.38;;;-18.67;49.53
77077;BME280;66003;52.286;104.306;2023-02-01T00:48:38;97790.28;;;-18.61;50.07
77077;BME280;66003;52.286;104.306;2023-02-01T00:51:10;97808.41;;;-18.48;49.64
77077;BME280;66003;52.286;104.306;2023-02-01T00:53:37;97798.25;;;-18.69;49.63
77077;BME280;66003;52.286;104.306;2023-02-01T00:56:04;97814.31;;;-18.66;50.26
77077;BME280;66003;52.286;104.306;2023-02-01T00:58:31;97794.69;;;-18.64;49.83
77077;BME280;66003;52.286;104.306;2023-02-01T01:01:07;97838.22;;;-18.50;49.76
77077;BME280;66003;52.286;104.306;2023-02-01T01:03:37;97835.47;;;-18.46;49.97
77077;BME280;66003;52.286;104.306;2023-02-01T01:06:06;97711.19;;;-19.19;49.47
77077;BME280;66003;52.286;104.306;2023-02-01T01:08:33;97815.09;;;-18.46;49.13
77077;BME280;66003;52.286;104.306;2023-02-01T01:11:05;97827.00;;;-18.46;48.83
77077;BME280;66003;52.286;104.306;2023-02-01T01:13:31;97778.56;;;-18.07;49.17
77077;BME280;66003;52.286;104.306;2023-02-01T01:16:00;97806.91;;;-17.40;48.70
77077;BME280;66003;52.286;104.306;2023-02-01T01:18:29;97808.03;;;-16.75;47.54
77077;BME280;66003;52.286;104.306;2023-02-01T01:20:56;97703.50;;;-16.31;47.45
77077;BME280;66003;52.286;104.306;2023-02-01T01:23:22;97765.66;;;-14.89;44.88
77077;BME280;66003;52.286;104.306;2023-02-01T01:25:48;97821.31;;;-13.60;40.23
77077;BME280;66003;52.286;104.306;2023-02-01T01:28:15;97756.88;;;-12.64;41.71
77077;BME280;66003;52.286;104.306;2023-02-01T01:30:41;97807.50;;;-11.38;39.23
77077;BME280;66003;52.286;104.306;2023-02-01T01:33:07;97773.16;;;-11.14;42.05
77077;BME280;66003;52.286;104.306;2023-02-01T01:35:33;97787.25;;;-11.31;34.65
77077;BME280;66003;52.286;104.306;2023-02-01T01:38:00;97816.59;;;-10.61;35.56
77077;BME280;66003;52.286;104.306;2023-02-01T01:40:27;97782.44;;;-9.96;37.30
77077;BME280;66003;52.286;104.306;2023-02-01T01:42:55;97810.19;;;-9.08;39.11
77077;BME280;66003;52.286;104.306;2023-02-01T01:45:27;97788.81;;;-8.58;39.15
77077;BME280;66003;52.286;104.306;2023-02-01T01:48:01;97798.16;;;-9.09;30.99
77077;BME280;66003;52.286;104.306;2023-02-01T01:51:00;97785.19;;;-8.66;29.90
77077;BME280;66003;52.286;104.306;2023-02-01T01:53:41;97790.94;;;-7.49;29.53
77077;BME280;66003;52.286;104.306;2023-02-01T01:56:11;97795.78;;;-5.99;32.29
77077;BME280;66003;52.286;104.306;2023-02-01T01:58:42;97799.31;;;-5.43;34.85
77077;BME280;66003;52.286;104.306;2023-02-01T02:01:08;97753.44;;;-5.64;36.15
77077;BME280;66003;52.286;104.306;2023-02-01T02:03:38;97782.09;;;-5.91;31.69
77077;BME280;66003;52.286;104.306;2023-02-01T02:06:10;97757.03;;;-6.02;34.91
77077;BME280;66003;52.286;104.306;2023-02-01T02:08:39;97745.16;;;-6.14;30.99
77077;BME280;66003;52.286;104.306;2023-02-01T02:11:05;97760.66;;;-5.48;31.79
77077;BME280;66003;52.286;104.306;2023-02-01T02:13:41;97767.59;;;-4.84;28.03
77077;BME280;66003;52.286;104.306;2023-02-01T02:22:04;97771.56;;;-5.35;32.28
77077;BME280;66003;52.286;104.306;2023-02-01T02:36:07;97715.78;;;-5.32;28.30
77077;BME280;66003;52.286;104.306;2023-02-01T02:38:45;97737.94;;;-5.01;30.43
77077;BME280;66003;52.286;104.306;2023-02-01T02:41:15;97754.13;;;-5.07;31.17
77077;BME280;66003;52.286;104.306;2023-02-01T02:44:23;97732.22;;;-5.59;32.49
77077;BME280;66003;52.286;104.306;2023-02-01T02:47:18;97747.88;;;-6.25;34.70
77077;BME280;66003;52.286;104.306;2023-02-01T02:50:17;97720.44;;;-6.76;30.11
77077;BME280;66003;52.286;104.306;2023-02-01T02:56:26;97716.44;;;-5.58;28.71
77077;BME280;66003;52.286;104.306;2023-02-01T02:59:13;97715.00;;;-5.70;29.15
77077;BME280;66003;52.286;104.306;2023-02-01T03:01:59;97715.84;;;-5.24;28.93
77077;BME280;66003;52.286;104.306;2023-02-01T03:04:44;97723.94;;;-4.64;27.36
77077;BME280;66003;52.286;104.306;2023-02-01T03:09:59;97725.88;;;-5.02;31.69
77077;BME280;66003;52.286;104.306;2023-02-01T03:12:33;97705.66;;;-6.66;29.42
77077;BME280;66003;52.286;104.306;2023-02-01T03:15:24;97677.94;;;-7.63;30.44
77077;BME280;66003;52.286;104.306;2023-02-01T03:17:55;97686.47;;;-8.12;31.37
77077;BME280;66003;52.286;104.306;2023-02-01T03:20:25;97688.03;;;-8.30;32.32
77077;BME280;66003;52.286;104.306;2023-02-01T03:22:52;97680.72;;;-9.08;32.69
77077;BME280;66003;52.286;104.306;2023-02-01T03:25:26;97731.88;;;-9.44;34.46
77077;BME280;66003;52.286;104.306;2023-02-01T03:28:00;97721.13;;;-9.28;35.03
77077;BME280;66003;52.286;104.306;2023-02-01T03:30:36;97698.09;;;-9.42;35.15
77077;BME280;66003;52.286;104.306;2023-02-01T03:33:06;97703.97;;;-9.29;34.78
77077;BME280;66003;52.286;104.306;2023-02-01T03:36:03;97725.53;;;-9.08;34.96
77077;BME280;66003;52.286;104.306;2023-02-01T03:38:33;97723.69;;;-9.17;35.19
77077;BME280;66003;52.286;104.306;2023-02-01T03:44:13;97676.66;;;-9.22;36.40
77077;BME280;66003;52.286;104.306;2023-02-01T03:49:23;97722.56;;;-8.71;36.17
77077;BME280;66003;52.286;104.306;2023-02-01T03:51:52;97707.66;;;-8.58;35.60
77077;BME280;66003;52.286;104.306;2023-02-01T03:54:19;97718.03;;;-8.38;35.34
77077;BME280;66003;52.286;104.306;2023-02-01T03:56:47;97711.88;;;-8.16;35.07
77077;BME280;66003;52.286;104.306;2023-02-01T03:59:14;97711.56;;;-7.92;34.48
77077;BME280;66003;52.286;104.306;2023-02-01T04:01:40;97662.47;;;-8.14;34.43
77077;BME280;66003;52.286;104.306;2023-02-01T04:04:06;97708.66;;;-7.98;34.79
77077;BME280;66003;52.286;104.306;2023-02-01T04:06:32;97661.00;;;-8.07;34.64
77077;BME280;66003;52.286;104.306;2023-02-01T04:08:58;97675.66;;;-7.96;34.76
77077;BME280;66003;52.286;104.306;2023-02-01T04:11:25;97689.94;;;-7.72;34.42
77077;BME280;66003;52.286;104.306;2023-02-01T04:13:53;97694.09;;;-7.50;34.85
77077;BME280;66003;52.286;104.306;2023-02-01T04:16:19;97670.59;;;-7.58;34.82
77077;BME280;66003;52.286;104.306;2023-02-01T04:18:45;97683.34;;;-7.36;35.30
77077;BME280;66003;52.286;104.306;2023-02-01T04:21:11;97645.47;;;-7.48;35.44
77077;BME280;66003;52.286;104.306;2023-02-01T04:23:37;97667.78;;;-7.16;35.76
77077;BME280;66003;52.286;104.306;2023-02-01T04:26:04;97637.81;;;-7.30;36.02
77077;BME280;66003;52.286;104.306;2023-02-01T04:28:31;97663.66;;;-7.19;36.11
77077;BME280;66003;52.286;104.306;2023-02-01T04:30:58;97625.13;;;-7.33;36.69
77077;BME280;66003;52.286;104.306;2023-02-01T04:33:43;97636.06;;;-7.10;36.89
77077;BME280;66003;52.286;104.306;2023-02-01T04:36:09;97658.75;;;-6.93;37.19
77077;BME280;66003;52.286;104.306;2023-02-01T04:38:35;97646.19;;;-6.98;37.12
77077;BME280;66003;52.286;104.306;2023-02-01T04:41:02;97623.91;;;-7.10;37.67
77077;BME280;66003;52.286;104.306;2023-02-01T04:43:28;97608.47;;;-7.21;37.33
77077;BME280;66003;52.286;104.306;2023-02-01T04:45:54;97638.66;;;-6.91;37.90
77077;BME280;66003;52.286;104.306;2023-02-01T04:48:20;97643.44;;;-6.77;38.66
77077;BME280;66003;52.286;104.306;2023-02-01T04:50:48;97651.38;;;-6.78;37.90
77077;BME280;66003;52.286;104.306;2023-02-01T04:53:15;97634.25;;;-6.62;37.85
77077;BME280;66003;52.286;104.306;2023-02-01T04:55:42;97628.19;;;-6.43;37.90
77077;BME280;66003;52.286;104.306;2023-02-01T04:58:08;97627.31;;;-6.34;37.52
77077;BME280;66003;52.286;104.306;2023-02-01T05:00:35;97592.72;;;-6.44;38.03
77077;BME280;66003;52.286;104.306;2023-02-01T05:03:01;97584.94;;;-6.44;37.15
77077;BME280;66003;52.286;104.306;2023-02-01T05:05:27;97634.91;;;-6.13;36.95
77077;BME280;66003;52.286;104.306;2023-02-01T05:07:54;97586.22;;;-6.21;36.97
77077;BME280;66003;52.286;104.306;2023-02-01T05:10:20;97590.88;;;-6.24;36.81
77077;BME280;66003;52.286;104.306;2023-02-01T05:12:47;97595.66;;;-6.20;36.87
77077;BME280;66003;52.286;104.306;2023-02-01T05:15:31;97588.78;;;-6.11;37.12
77077;BME280;66003;52.286;104.306;2023-02-01T05:17:57;97618.72;;;-5.79;37.41
77077;BME280;66003;52.286;104.306;2023-02-01T05:20:24;97607.91;;;-5.85;36.94
77077;BME280;66003;52.286;104.306;2023-02-01T05:22:51;97590.09;;;-5.79;37.09
77077;BME280;66003;52.286;104.306;2023-02-01T05:25:17;97607.44;;;-5.53;36.66
77077;BME280;66003;52.286;104.306;2023-02-01T05:27:43;97613.38;;;-5.33;37.28
77077;BME280;66003;52.286;104.306;2023-02-01T05:30:09;97608.97;;;-5.15;37.56
77077;BME280;66003;52.286;104.306;2023-02-01T05:32:36;97612.31;;;-5.22;37.84
77077;BME280;66003;52.286;104.306;2023-02-01T05:35:02;97574.53;;;-5.44;38.38
77077;BME280;66003;52.286;104.306;2023-02-01T05:37:29;97609.94;;;-5.33;38.46
77077;BME280;66003;52.286;104.306;2023-02-01T05:39:55;97588.88;;;-5.58;38.71
77077;BME280;66003;52.286;104.306;2023-02-01T05:42:22;97595.94;;;-5.50;38.30
77077;BME280;66003;52.286;104.306;2023-02-01T05:44:48;97573.75;;;-5.72;38.13
77077;BME280;66003;52.286;104.306;2023-02-01T05:47:14;97572.19;;;-5.65;38.18
77077;BME280;66003;52.286;104.306;2023-02-01T05:49:40;97600.03;;;-5.48;38.08
77077;BME280;66003;52.286;104.306;2023-02-01T05:52:06;97593.25;;;-5.58;38.38
77077;BME280;66003;52.286;104.306;2023-02-01T05:54:32;97602.63;;;-5.48;38.71
77077;BME280;66003;52.286;104.306;2023-02-01T05:56:58;97594.28;;;-5.51;38.65
77077;BME280;66003;52.286;104.306;2023-02-01T05:59:24;97580.00;;;-5.65;39.15
77077;BME280;66003;52.286;104.306;2023-02-01T06:01:51;97586.00;;;-5.64;39.60
77077;BME280;66003;52.286;104.306;2023-02-01T06:04:17;97585.34;;;-5.66;40.26
77077;BME280;66003;52.286;104.306;2023-02-01T06:06:43;97550.22;;;-5.98;40.52
77077;BME280;66003;52.286;104.306;2023-02-01T06:09:09;97546.31;;;-6.11;41.06
77077;BME280;66003;52.286;104.306;2023-02-01T06:11:35;97579.53;;;-5.96;41.34
77077;BME280;66003;52.286;104.306;2023-02-01T06:14:01;97541.63;;;-6.26;42.25
77077;BME280;66003;52.286;104.306;2023-02-01T06:16:27;97559.53;;;-6.23;42.53
77077;BME280;66003;52.286;104.306;2023-02-01T06:18:54;97571.25;;;-6.09;42.48
77077;BME280;66003;52.286;104.306;2023-02-01T06:21:20;97529.03;;;-6.30;42.59
77077;BME280;66003;52.286;104.306;2023-02-01T06:23:53;97530.91;;;-6.23;42.06
77077;BME280;66003;52.286;104.306;2023-02-01T06:26:20;97567.88;;;-5.92;42.03
77077;BME280;66003;52.286;104.306;2023-02-01T06:28:46;97549.03;;;-6.03;41.79
77077;BME280;66003;52.286;104.306;2023-02-01T06:31:12;97544.66;;;-6.03;41.80
77077;BME280;66003;52.286;104.306;2023-02-01T06:33:38;97549.25;;;-5.97;42.07
77077;BME280;66003;52.286;104.306;2023-02-01T06:36:06;97564.50;;;-5.84;42.04
77077;BME280;66003;52.286;104.306;2023-02-01T06:38:33;97535.81;;;-5.92;41.96
77077;BME280;66003;52.286;104.306;2023-02-01T06:41:03;97523.03;;;-6.03;41.83
77077;BME280;66003;52.286;104.306;2023-02-01T06:43:30;97558.03;;;-5.80;41.77
77077;BME280;66003;52.286;104.306;2023-02-01T06:46:05;97529.72;;;-5.83;41.72
77077;BME280;66003;52.286;104.306;2023-02-01T06:48:31;97547.78;;;-5.64;41.88
77077;BME280;66003;52.286;104.306;2023-02-01T06:50:58;97526.88;;;-5.72;41.70
77077;BME280;66003;52.286;104.306;2023-02-01T06:53:24;97527.28;;;-5.67;41.91
77077;BME280;66003;52.286;104.306;2023-02-01T06:55:55;97530.09;;;-5.60;41.77
77077;BME280;66003;52.286;104.306;2023-02-01T06:58:22;97535.22;;;-5.51;42.14
77077;BME280;66003;52.286;104.306;2023-02-01T07:00:49;97482.72;;;-5.82;42.65
77077;BME280;66003;52.286;104.306;2023-02-01T07:03:16;97481.75;;;-5.80;42.77
77077;BME280;66003;52.286;104.306;2023-02-01T07:05:42;97484.03;;;-5.77;42.95
77077;BME280;66003;52.286;104.306;2023-02-01T07:08:08;97512.44;;;-5.66;43.15
77077;BME280;66003;52.286;104.306;2023-02-01T07:10:34;97495.88;;;-5.83;43.41
77077;BME280;66003;52.286;104.306;2023-02-01T07:13:00;97503.16;;;-5.69;43.30
77077;BME280;66003;52.286;104.306;2023-02-01T07:15:26;97488.13;;;-5.75;42.99
77077;BME280;66003;52.286;104.306;2023-02-01T07:17:56;97486.13;;;-5.81;43.15
77077;BME280;66003;52.286;104.306;2023-02-01T07:20:22;97532.91;;;-5.54;42.99
77077;BME280;66003;52.286;104.306;2023-02-01T07:22:54;97513.50;;;-5.59;42.99
77077;BME280;66003;52.286;104.306;2023-02-01T07:25:21;97487.47;;;-5.77;43.13
77077;BME280;66003;52.286;104.306;2023-02-01T07:27:47;97524.59;;;-5.57;43.81
77077;BME280;66003;52.286;104.306;2023-02-01T07:30:13;97517.97;;;-5.69;43.33
77077;BME280;66003;52.286;104.306;2023-02-01T07:32:39;97487.53;;;-5.87;43.73
77077;BME280;66003;52.286;104.306;2023-02-01T07:35:05;97489.28;;;-5.95;43.93
77077;BME280;66003;52.286;104.306;2023-02-01T07:37:32;97510.66;;;-6.01;44.20
77077;BME280;66003;52.286;104.306;2023-02-01T07:39:58;97505.09;;;-6.06;44.23
77077;BME280;66003;52.286;104.306;2023-02-01T07:42:24;97492.97;;;-6.15;44.30
77077;BME280;66003;52.286;104.306;2023-02-01T07:44:50;97526.28;;;-6.01;44.30
77077;BME280;66003;52.286;104.306;2023-02-01T07:47:16;97521.13;;;-6.11;44.24
77077;BME280;66003;52.286;104.306;2023-02-01T07:49:42;97528.50;;;-6.06;44.46
77077;BME280;66003;52.286;104.306;2023-02-01T07:52:08;97546.38;;;-5.94;44.39
77077;BME280;66003;52.286;104.306;2023-02-01T07:54:36;97504.47;;;-6.18;45.14
77077;BME280;66003;52.286;104.306;2023-02-01T07:57:02;97539.13;;;-5.90;44.89
77077;BME280;66003;52.286;104.306;2023-02-01T07:59:28;97531.78;;;-5.87;44.59
77077;BME280;66003;52.286;104.306;2023-02-01T08:01:55;97539.97;;;-5.82;44.43
77077;BME280;66003;52.286;104.306;2023-02-01T08:04:21;97534.38;;;-5.87;43.29
77077;BME280;66003;52.286;104.306;2023-02-01T08:06:47;97528.69;;;-5.90;43.04
77077;BME280;66003;52.286;104.306;2023-02-01T08:09:13;97476.91;;;-6.29;43.62
77077;BME280;66003;52.286;104.306;2023-02-01T08:11:39;97489.31;;;-6.23;43.80
77077;BME280;66003;52.286;104.306;2023-02-01T08:14:05;97521.38;;;-6.04;43.22
77077;BME280;66003;52.286;104.306;2023-02-01T08:16:32;97540.56;;;-6.05;43.04
77077;BME280;66003;52.286;104.306;2023-02-01T08:19:00;97535.63;;;-6.08;42.96
77077;BME280;66003;52.286;104.306;2023-02-01T08:21:28;97533.09;;;-6.18;43.48
77077;BME280;66003;52.286;104.306;2023-02-01T08:24:08;97512.41;;;-6.37;43.72
77077;BME280;66003;52.286;104.306;2023-02-01T08:26:35;97539.16;;;-6.27;43.67
77077;BME280;66003;52.286;104.306;2023-02-01T08:29:04;97544.78;;;-6.32;43.41
77077;BME280;66003;52.286;104.306;2023-02-01T08:31:31;97499.22;;;-6.63;42.79
77077;BME280;66003;52.286;104.306;2023-02-01T08:33:59;97503.47;;;-6.62;43.00
77077;BME280;66003;52.286;104.306;2023-02-01T08:36:28;97533.91;;;-6.45;43.35
77077;BME280;66003;52.286;104.306;2023-02-01T08:38:55;97504.75;;;-6.76;43.42
77077;BME280;66003;52.286;104.306;2023-02-01T08:41:24;97538.09;;;-6.62;43.53
77077;BME280;66003;52.286;104.306;2023-02-01T08:43:54;97478.34;;;-7.08;43.80
77077;BME280;66003;52.286;104.306;2023-02-01T08:46:21;97548.66;;;-6.73;43.88
77077;BME280;66003;52.286;104.306;2023-02-01T08:48:48;97507.38;;;-6.95;44.01
77077;BME280;66003;52.286;104.306;2023-02-01T08:51:16;97537.84;;;-6.78;44.69
77077;BME280;66003;52.286;104.306;2023-02-01T08:53:43;97537.84;;;-6.78;44.72
77077;BME280;66003;52.286;104.306;2023-02-01T08:56:13;97539.09;;;-6.82;44.69
77077;BME280;66003;52.286;104.306;2023-02-01T08:58:40;97482.56;;;-7.17;45.05
77077;BME280;66003;52.286;104.306;2023-02-01T09:01:07;97520.97;;;-7.01;45.07
77077;BME280;66003;52.286;104.306;2023-02-01T09:03:35;97535.31;;;-6.97;45.32
77077;BME280;66003;52.286;104.306;2023-02-01T09:06:02;97535.84;;;-7.03;45.06
77077;BME280;66003;52.286;104.306;2023-02-01T09:08:29;97535.59;;;-7.10;44.48
77077;BME280;66003;52.286;104.306;2023-02-01T09:10:59;97524.69;;;-7.23;44.21
77077;BME280;66003;52.286;104.306;2023-02-01T09:13:26;97549.00;;;-7.24;44.16
77077;BME280;66003;52.286;104.306;2023-02-01T09:15:52;97542.72;;;-7.31;44.56
77077;BME280;66003;52.286;104.306;2023-02-01T09:18:19;97527.97;;;-7.50;44.80
77077;BME280;66003;52.286;104.306;2023-02-01T09:20:45;97503.53;;;-7.76;45.30
77077;BME280;66003;52.286;104.306;2023-02-01T09:23:11;97542.88;;;-7.61;44.36
77077;BME280;66003;52.286;104.306;2023-02-01T09:25:38;97534.13;;;-7.80;44.03
77077;BME280;66003;52.286;104.306;2023-02-01T09:28:05;97524.66;;;-7.90;44.35
77077;BME280;66003;52.286;104.306;2023-02-01T09:30:32;97495.03;;;-8.17;44.33
77077;BME280;66003;52.286;104.306;2023-02-01T09:32:58;97555.78;;;-7.90;43.61
77077;BME280;66003;52.286;104.306;2023-02-01T09:35:25;97547.75;;;-7.97;43.41
77077;BME280;66003;52.286;104.306;2023-02-01T09:37:52;97543.09;;;-8.03;44.45
77077;BME280;66003;52.286;104.306;2023-02-01T09:40:19;97510.69;;;-8.38;43.58
77077;BME280;66003;52.286;104.306;2023-02-01T09:45:55;97509.84;;;-8.48;43.70
77077;BME280;66003;52.286;104.306;2023-02-01T09:48:30;97542.06;;;-8.41;43.19
77077;BME280;66003;52.286;104.306;2023-02-01T09:50:59;97546.25;;;-8.49;43.35
77077;BME280;66003;52.286;104.306;2023-02-01T09:53:34;97543.63;;;-8.59;43.10
77077;BME280;66003;52.286;104.306;2023-02-01T09:56:12;97542.13;;;-8.61;44.32
77077;BME280;66003;52.286;104.306;2023-02-01T09:59:09;97506.22;;;-8.96;44.68
77077;BME280;66003;52.286;104.306;2023-02-01T10:01:37;97535.47;;;-8.85;44.86
77077;BME280;66003;52.286;104.306;2023-02-01T10:04:12;97547.34;;;-8.82;44.08
77077;BME280;66003;52.286;104.306;2023-02-01T10:15:30;97571.94;;;-8.97;44.47
77077;BME280;66003;52.286;104.306;2023-02-01T10:18:34;97527.38;;;-9.22;45.09
77077;BME280;66003;52.286;104.306;2023-02-01T10:26:27;97564.09;;;-9.07;45.52
77077;BME280;66003;52.286;104.306;2023-02-01T10:29:01;97562.44;;;-9.08;45.80
77077;BME280;66003;52.286;104.306;2023-02-01T10:31:37;97565.63;;;-9.04;46.12
77077;BME280;66003;52.286;104.306;2023-02-01T10:34:35;97515.03;;;-9.29;46.16
77077;BME280;66003;52.286;104.306;2023-02-01T10:37:07;97556.06;;;-9.04;46.21
77077;BME280;66003;52.286;104.306;2023-02-01T10:39:35;97519.16;;;-9.27;45.95
77077;BME280;66003;52.286;104.306;2023-02-01T10:42:03;97537.72;;;-9.22;46.17
77077;BME280;66003;52.286;104.306;2023-02-01T10:44:30;97537.84;;;-9.23;45.88
77077;BME280;66003;52.286;104.306;2023-02-01T10:46:59;97511.75;;;-9.52;45.94
77077;BME280;66003;52.286;104.306;2023-02-01T10:49:29;97579.06;;;-9.10;46.37
77077;BME280;66003;52.286;104.306;2023-02-01T10:52:05;97532.66;;;-9.44;46.46
77077;BME280;66003;52.286;104.306;2023-02-01T10:54:37;97563.44;;;-9.20;46.69
77077;BME280;66003;52.286;104.306;2023-02-01T10:57:25;97581.25;;;-9.06;46.76
77077;BME280;66003;52.286;104.306;2023-02-01T10:59:55;97558.03;;;-9.17;46.59
77077;BME280;66003;52.286;104.306;2023-02-01T11:02:34;97588.22;;;-9.06;46.43
77077;BME280;66003;52.286;104.306;2023-02-01T11:05:07;97568.38;;;-9.17;46.93
77077;BME280;66003;52.286;104.306;2023-02-01T11:07:39;97564.03;;;-9.17;46.64
77077;BME280;66003;52.286;104.306;2023-02-01T11:10:41;97579.91;;;-9.10;46.68
77077;BME280;66003;52.286;104.306;2023-02-01T11:13:17;97529.94;;;-9.42;46.55
77077;BME280;66003;52.286;104.306;2023-02-01T11:15:45;97580.06;;;-9.23;46.98
77077;BME280;66003;52.286;104.306;2023-02-01T11:18:17;97555.63;;;-9.51;47.29
77077;BME280;66003;52.286;104.306;2023-02-01T11:20:45;97532.69;;;-9.76;46.83
77077;BME280;66003;52.286;104.306;2023-02-01T11:23:17;97580.66;;;-9.51;46.58
77077;BME280;66003;52.286;104.306;2023-02-01T11:25:49;97559.03;;;-9.82;46.43
77077;BME280;66003;52.286;104.306;2023-02-01T11:28:17;97553.09;;;-9.94;46.30
77077;BME280;66003;52.286;104.306;2023-02-01T11:30:45;97557.66;;;-9.97;46.44
77077;BME280;66003;52.286;104.306;2023-02-01T11:33:19;97578.09;;;-9.94;46.69
77077;BME280;66003;52.286;104.306;2023-02-01T11:35:47;97545.19;;;-10.24;46.39
77077;BME280;66003;52.286;104.306;2023-02-01T11:38:26;97550.09;;;-10.21;46.78
77077;BME280;66003;52.286;104.306;2023-02-01T11:40:53;97552.41;;;-10.07;45.86
77077;BME280;66003;52.286;104.306;2023-02-01T11:43:26;97604.03;;;-9.73;45.85
77077;BME280;66003;52.286;104.306;2023-02-01T11:45:58;97579.97;;;-9.96;45.56
77077;BME280;66003;52.286;104.306;2023-02-01T11:48:27;97607.00;;;-10.00;45.57
77077;BME280;66003;52.286;104.306;2023-02-01T11:51:15;97597.97;;;-9.95;45.73
77077;BME280;66003;52.286;104.306;2023-02-01T11:55:10;97583.69;;;-10.21;46.55
77077;BME280;66003;52.286;104.306;2023-02-01T11:57:09;97557.53;;;-10.28;45.65
77077;BME280;66003;52.286;104.306;2023-02-01T12:00:08;97600.56;;;-10.06;45.44
77077;BME280;66003;52.286;104.306;2023-02-01T12:11:14;97512.16;;;-10.86;45.70
77077;BME280;66003;52.286;104.306;2023-02-01T12:22:51;97591.91;;;-10.49;46.18
77077;BME280;66003;52.286;104.306;2023-02-01T12:25:34;97593.94;;;-10.75;47.05
77077;BME280;66003;52.286;104.306;2023-02-01T12:31:27;97581.00;;;-10.98;47.58
77077;BME280;66003;52.286;104.306;2023-02-01T12:39:39;97583.13;;;-11.38;46.97
77077;BME280;66003;52.286;104.306;2023-02-01T12:42:26;97591.28;;;-11.44;47.12
77077;BME280;66003;52.286;104.306;2023-02-01T12:45:30;97591.44;;;-11.69;47.33
77077;BME280;66003;52.286;104.306;2023-02-01T12:51:24;97580.16;;;-12.03;48.40
77077;BME280;66003;52.286;104.306;2023-02-01T12:56:41;97553.91;;;-12.45;50.39
77077;BME280;66003;52.286;104.306;2023-02-01T12:59:36;97590.13;;;-11.98;49.47
77077;BME280;66003;52.286;104.306;2023-02-01T13:05:19;97597.81;;;-11.86;48.95
77077;BME280;66003;52.286;104.306;2023-02-01T13:18:43;97588.13;;;-12.43;49.56
77077;BME280;66003;52.286;104.306;2023-02-01T13:21:24;97583.88;;;-12.44;48.99
77077;BME280;66003;52.286;104.306;2023-02-01T13:23:52;97594.38;;;-12.47;49.55
77077;BME280;66003;52.286;104.306;2023-02-01T13:26:19;97593.56;;;-12.47;49.58
77077;BME280;66003;52.286;104.306;2023-02-01T13:29:06;97593.47;;;-12.46;49.74
77077;BME280;66003;52.286;104.306;2023-02-01T13:32:01;97600.72;;;-12.63;49.89
77077;BME280;66003;52.286;104.306;2023-02-01T13:42:57;97595.78;;;-12.79;49.36
77077;BME280;66003;52.286;104.306;2023-02-01T13:45:30;97590.53;;;-12.90;49.47
77077;BME280;66003;52.286;104.306;2023-02-01T13:48:00;97533.47;;;-13.46;50.75
77077;BME280;66003;52.286;104.306;2023-02-01T13:50:33;97592.59;;;-13.21;52.10
77077;BME280;66003;52.286;104.306;2023-02-01T13:53:11;97569.53;;;-13.09;50.24
77077;BME280;66003;52.286;104.306;2023-02-01T13:55:49;97529.69;;;-13.80;53.48
77077;BME280;66003;52.286;104.306;2023-02-01T13:58:43;97567.97;;;-13.50;52.92
77077;BME280;66003;52.286;104.306;2023-02-01T14:03:57;97574.78;;;-13.11;50.55
77077;BME280;66003;52.286;104.306;2023-02-01T14:11:42;97590.91;;;-13.47;52.12
77077;BME280;66003;52.286;104.306;2023-02-01T14:16:43;97569.66;;;-13.76;52.20
77077;BME280;66003;52.286;104.306;2023-02-01T14:19:29;97586.88;;;-13.64;52.07
77077;BME280;66003;52.286;104.306;2023-02-01T14:22:46;97543.22;;;-13.91;52.46
77077;BME280;66003;52.286;104.306;2023-02-01T14:24:53;97564.94;;;-13.82;52.71
77077;BME280;66003;52.286;104.306;2023-02-01T14:27:36;97585.84;;;-13.61;52.57
77077;BME280;66003;52.286;104.306;2023-02-01T14:30:11;97582.59;;;-13.38;50.58
77077;BME280;66003;52.286;104.306;2023-02-01T14:32:41;97565.00;;;-13.44;50.80
77077;BME280;66003;52.286;104.306;2023-02-01T14:35:40;97584.88;;;-13.46;50.96
77077;BME280;66003;52.286;104.306;2023-02-01T14:38:31;97571.34;;;-13.62;51.65
77077;BME280;66003;52.286;104.306;2023-02-01T14:41:25;97572.16;;;-13.74;51.41
77077;BME280;66003;52.286;104.306;2023-02-01T14:47:47;97590.94;;;-14.01;52.17
77077;BME280;66003;52.286;104.306;2023-02-01T14:52:33;97555.31;;;-14.05;50.43
77077;BME280;66003;52.286;104.306;2023-02-01T14:55:04;97556.50;;;-14.11;50.42
77077;BME280;66003;52.286;104.306;2023-02-01T14:57:34;97596.97;;;-13.88;50.33